Time;durP1;ratioP1;P1;durP2;ratioP2;P2;SDS_P1;SDS_P2;PMS_P1;PMS_P2;Temp;Humidity;BMP_temperature;BMP_pressure;BME280_temperature;BME280_humidity;BME280_pressure;Samples;Min_cycle;Max_cycle;Signal;HPM_P1;HPM_P2
2022/03/12 00:02:16;;;;;;;9.63;5.57;;;;;;;;;;5072545;28;20452;-48
2022/03/12 00:04:45;;;;;;;6.03;5.03;;;;;;;;;;5072745;28;20295;-48
2022/03/12 00:07:12;;;;;;;6.00;5.03;;;;;;;;;;5072462;28;20989;-48
2022/03/12 00:09:38;;;;;;;7.63;5.30;;;;;;;;;;5072530;28;20480;-48
2022/03/12 00:12:05;;;;;;;8.87;5.53;;;;;;;;;;5072342;28;20422;-48
2022/03/12 00:14:33;;;;;;;8.07;5.40;;;;;;;;;;5072597;28;20442;-48
2022/03/12 00:16:59;;;;;;;7.13;4.97;;;;;;;;;;5072371;28;20433;-48
2022/03/12 00:19:25;;;;;;;8.83;5.40;;;;;;;;;;5072277;28;20454;-48
2022/03/12 00:21:53;;;;;;;6.43;5.53;;;;;;;;;;5072347;28;20470;-49
2022/03/12 00:24:22;;;;;;;7.83;5.60;;;;;;;;;;5071619;28;20250;-48
2022/03/12 00:26:50;;;;;;;7.57;5.13;;;;;;;;;;5071678;28;20845;-48
2022/03/12 00:29:16;;;;;;;7.67;5.30;;;;;;;;;;5071933;28;20441;-48
2022/03/12 00:31:43;;;;;;;6.80;5.60;;;;;;;;;;5071991;28;20426;-49
2022/03/12 00:34:09;;;;;;;6.80;5.60;;;;;;;;;;5071936;28;20438;-48
2022/03/12 00:36:35;;;;;;;7.43;5.83;;;;;;;;;;5072036;28;20434;-48
2022/03/12 00:39:03;;;;;;;5.80;5.10;;;;;;;;;;5071887;28;20438;-48
2022/03/12 00:41:29;;;;;;;10.17;5.30;;;;;;;;;;5071929;28;20445;-48
2022/03/12 00:43:55;;;;;;;6.83;5.23;;;;;;;;;;5071938;28;20442;-48
2022/03/12 00:46:22;;;;;;;9.10;5.90;;;;;;;;;;5071657;28;20207;-49
2022/03/12 00:48:48;;;;;;;7.63;5.57;;;;;;;;;;5071730;28;20446;-48
2022/03/12 00:51:14;;;;;;;8.30;5.80;;;;;;;;;;5068080;28;20539;-48
2022/03/12 00:53:40;;;;;;;8.03;5.23;;;;;;;;;;5071525;28;20818;-48
2022/03/12 00:56:09;;;;;;;7.63;5.63;;;;;;;;;;5071693;28;20496;-48
2022/03/12 00:58:35;;;;;;;6.60;5.60;;;;;;;;;;5071731;28;20442;-48
2022/03/12 01:01:02;;;;;;;10.40;6.10;;;;;;;;;;5071577;28;20879;-48
2022/03/12 01:03:28;;;;;;;6.93;4.93;;;;;;;;;;5071557;28;21008;-48
2022/03/12 01:05:59;;;;;;;6.30;5.13;;;;;;;;;;5073867;28;20441;-48
2022/03/12 01:08:26;;;;;;;8.10;5.43;;;;;;;;;;5075826;28;20290;-48
2022/03/12 01:10:52;;;;;;;8.80;5.50;;;;;;;;;;5075814;28;20513;-48
2022/03/12 01:13:21;;;;;;;8.87;5.40;;;;;;;;;;5075727;28;20434;-48
2022/03/12 01:15:47;;;;;;;8.03;5.60;;;;;;;;;;5075694;28;20953;-49
2022/03/12 01:18:13;;;;;;;8.67;5.80;;;;;;;;;;5075610;28;20465;-48
2022/03/12 01:20:40;;;;;;;8.17;5.67;;;;;;;;;;5075546;28;20195;-49
2022/03/12 01:23:06;;;;;;;6.07;5.30;;;;;;;;;;5075245;28;20503;-49
2022/03/12 01:25:32;;;;;;;7.67;5.53;;;;;;;;;;5075602;28;20461;-49
2022/03/12 01:27:58;;;;;;;6.63;5.50;;;;;;;;;;5075464;28;20426;-48
2022/03/12 01:30:28;;;;;;;6.60;5.70;;;;;;;;;;5075198;28;20485;-49
2022/03/12 01:32:54;;;;;;;10.40;5.90;;;;;;;;;;5075267;28;20665;-49
2022/03/12 01:35:20;;;;;;;8.97;5.67;;;;;;;;;;5075170;28;20528;-49
2022/03/12 01:37:46;;;;;;;7.03;5.27;;;;;;;;;;5075295;28;20266;-49
2022/03/12 01:40:13;;;;;;;6.50;5.17;;;;;;;;;;5075138;28;20491;-49
2022/03/12 01:42:40;;;;;;;6.30;4.90;;;;;;;;;;5075124;28;20433;-49
2022/03/12 01:45:09;;;;;;;6.87;5.17;;;;;;;;;;5074970;28;20518;-49
2022/03/12 01:47:36;;;;;;;7.93;5.70;;;;;;;;;;5075045;28;20931;-49
2022/03/12 01:50:03;;;;;;;8.13;5.67;;;;;;;;;;5074667;28;20975;-49
2022/03/12 01:52:29;;;;;;;10.00;5.27;;;;;;;;;;5075119;28;20445;-49
2022/03/12 01:54:55;;;;;;;7.40;5.27;;;;;;;;;;5074850;28;20489;-49
2022/03/12 01:57:21;;;;;;;7.33;5.60;;;;;;;;;;5074720;28;20940;-49
2022/03/12 01:59:48;;;;;;;7.53;5.80;;;;;;;;;;5074754;28;20650;-49
2022/03/12 02:02:15;;;;;;;7.40;5.27;;;;;;;;;;5074796;28;20418;-49
2022/03/12 02:04:51;;;;;;;13.03;5.73;;;;;;;;;;5074905;28;20492;-49
2022/03/12 02:07:17;;;;;;;7.40;5.80;;;;;;;;;;5074703;28;20927;-50
2022/03/12 02:09:44;;;;;;;7.97;5.40;;;;;;;;;;5074796;28;20472;-49
2022/03/12 02:12:11;;;;;;;7.97;5.47;;;;;;;;;;5074564;28;20464;-49
2022/03/12 02:14:37;;;;;;;7.00;5.03;;;;;;;;;;5074590;28;20468;-49
2022/03/12 02:17:05;;;;;;;8.83;5.93;;;;;;;;;;5074365;28;21011;-49
2022/03/12 02:19:31;;;;;;;6.57;5.03;;;;;;;;;;5074772;28;20503;-49
2022/03/12 02:22:00;;;;;;;7.07;5.77;;;;;;;;;;5074657;28;20484;-49
2022/03/12 02:24:28;;;;;;;7.23;5.33;;;;;;;;;;5074163;28;20513;-49
2022/03/12 02:26:55;;;;;;;8.53;5.43;;;;;;;;;;5074285;28;20916;-49
2022/03/12 02:29:22;;;;;;;8.53;5.63;;;;;;;;;;5074191;28;20682;-49
2022/03/12 02:31:49;;;;;;;6.50;5.43;;;;;;;;;;5074462;28;20521;-49
2022/03/12 02:34:19;;;;;;;9.03;5.60;;;;;;;;;;5074251;28;20951;-49
2022/03/12 02:36:45;;;;;;;8.57;6.33;;;;;;;;;;5074442;28;20444;-48
2022/03/12 02:39:11;;;;;;;12.27;6.03;;;;;;;;;;5074128;28;20463;-49
2022/03/12 02:41:38;;;;;;;6.70;5.67;;;;;;;;;;5073966;28;20944;-49
2022/03/12 02:44:05;;;;;;;8.47;5.80;;;;;;;;;;5073911;28;20457;-49
2022/03/12 02:46:31;;;;;;;6.27;5.47;;;;;;;;;;5074196;28;20491;-49
2022/03/12 02:48:58;;;;;;;7.80;5.27;;;;;;;;;;5073966;28;20434;-49
2022/03/12 02:51:26;;;;;;;7.60;5.40;;;;;;;;;;5073896;28;20488;-48
2022/03/12 02:53:55;;;;;;;9.27;5.93;;;;;;;;;;5073910;28;20437;-49
2022/03/12 02:56:21;;;;;;;7.40;5.37;;;;;;;;;;5073670;28;20928;-48
2022/03/12 02:58:49;;;;;;;8.47;5.03;;;;;;;;;;5073901;28;20449;-48
2022/03/12 03:01:15;;;;;;;7.67;5.70;;;;;;;;;;5073781;28;20561;-48
2022/03/12 03:03:42;;;;;;;7.93;5.70;;;;;;;;;;5073869;28;20449;-49
2022/03/12 03:06:09;;;;;;;8.47;5.60;;;;;;;;;;5073663;28;20430;-49
2022/03/12 03:08:39;;;;;;;6.87;5.03;;;;;;;;;;5073730;28;20425;-48
2022/03/12 03:11:09;;;;;;;9.03;5.77;;;;;;;;;;5073443;28;20476;-49
2022/03/12 03:13:36;;;;;;;7.63;5.07;;;;;;;;;;5073633;28;20450;-50
2022/03/12 03:16:06;;;;;;;5.93;4.60;;;;;;;;;;5073465;28;20472;-48
2022/03/12 03:18:33;;;;;;;7.63;5.27;;;;;;;;;;5073406;28;21003;-49
2022/03/12 03:21:00;;;;;;;7.37;5.23;;;;;;;;;;5073266;28;20437;-49
2022/03/12 03:23:27;;;;;;;8.07;5.10;;;;;;;;;;5073042;28;20493;-49
2022/03/12 03:25:53;;;;;;;6.70;5.20;;;;;;;;;;5073268;28;20438;-49
2022/03/12 03:28:19;;;;;;;7.00;4.90;;;;;;;;;;5072611;28;20810;-48
2022/03/12 03:30:46;;;;;;;7.77;4.67;;;;;;;;;;5073262;28;20473;-49
2022/03/12 03:33:14;;;;;;;8.23;5.40;;;;;;;;;;5073363;28;20536;-49
2022/03/12 03:35:40;;;;;;;6.03;4.87;;;;;;;;;;5073238;28;20442;-49
2022/03/12 03:38:07;;;;;;;8.77;5.00;;;;;;;;;;5072910;28;20438;-50
2022/03/12 03:40:33;;;;;;;9.13;5.57;;;;;;;;;;5073107;28;20520;-49
2022/03/12 03:42:59;;;;;;;7.73;5.43;;;;;;;;;;5073049;28;20883;-49
2022/03/12 03:45:27;;;;;;;7.67;5.07;;;;;;;;;;5072909;28;20207;-49
2022/03/12 03:47:54;;;;;;;5.57;4.30;;;;;;;;;;5072889;28;20568;-49
2022/03/12 03:50:25;;;;;;;9.07;5.63;;;;;;;;;;5072636;28;20551;-49
2022/03/12 03:52:52;;;;;;;6.97;5.30;;;;;;;;;;5072702;28;20962;-49
2022/03/12 03:55:18;;;;;;;7.03;4.90;;;;;;;;;;5072816;28;20433;-49
2022/03/12 03:57:44;;;;;;;9.33;5.13;;;;;;;;;;5072717;28;20483;-49
2022/03/12 04:00:11;;;;;;;9.60;5.10;;;;;;;;;;5072493;28;20446;-48
2022/03/12 04:02:37;;;;;;;6.50;4.93;;;;;;;;;;5072701;28;20195;-48
2022/03/12 04:05:03;;;;;;;8.53;4.57;;;;;;;;;;5072720;28;20440;-49
2022/03/12 04:07:31;;;;;;;5.03;4.50;;;;;;;;;;5072604;28;20608;-49
2022/03/12 04:09:56;;;;;;;8.30;4.70;;;;;;;;;;5072381;28;20480;-49
2022/03/12 04:12:23;;;;;;;5.03;4.17;;;;;;;;;;5072265;28;20517;-49
2022/03/12 04:14:50;;;;;;;6.37;4.83;;;;;;;;;;5072321;28;20234;-49
2022/03/12 04:17:18;;;;;;;7.43;4.63;;;;;;;;;;5072352;28;20433;-49
2022/03/12 04:19:44;;;;;;;5.83;4.73;;;;;;;;;;5072431;28;20484;-48
2022/03/12 04:22:10;;;;;;;6.47;4.77;;;;;;;;;;5072177;28;20438;-48
2022/03/12 04:24:37;;;;;;;7.93;4.80;;;;;;;;;;5071928;28;20485;-48
2022/03/12 04:27:03;;;;;;;5.83;4.30;;;;;;;;;;5071943;28;20928;-48
2022/03/12 04:29:29;;;;;;;5.97;4.43;;;;;;;;;;5072350;28;20442;-48
2022/03/12 04:31:55;;;;;;;4.93;4.30;;;;;;;;;;5072141;28;20849;-48
2022/03/12 04:34:22;;;;;;;7.53;4.60;;;;;;;;;;5071679;28;20460;-48
2022/03/12 04:36:48;;;;;;;6.30;5.17;;;;;;;;;;5071822;28;20474;-49
2022/03/12 04:39:15;;;;;;;6.07;4.13;;;;;;;;;;5071458;28;20488;-49
2022/03/12 04:41:42;;;;;;;6.83;4.30;;;;;;;;;;5071584;28;20425;-49
2022/03/12 04:44:08;;;;;;;5.50;4.10;;;;;;;;;;5071766;28;20438;-49
2022/03/12 04:46:35;;;;;;;6.17;4.77;;;;;;;;;;5071825;28;20515;-49
2022/03/12 04:49:01;;;;;;;6.77;5.00;;;;;;;;;;5071918;28;20803;-49
2022/03/12 04:51:30;;;;;;;6.13;4.70;;;;;;;;;;5072149;28;20808;-49
2022/03/12 04:53:56;;;;;;;7.00;5.10;;;;;;;;;;5071880;28;20421;-49
2022/03/12 04:56:23;;;;;;;5.97;4.83;;;;;;;;;;5071745;28;20441;-49
2022/03/12 04:58:51;;;;;;;6.47;4.90;;;;;;;;;;5071929;28;20485;-50
2022/03/12 05:01:16;;;;;;;6.33;5.00;;;;;;;;;;5071837;28;20511;-49
2022/03/12 05:03:43;;;;;;;10.27;5.37;;;;;;;;;;5071804;28;20473;-50
2022/03/12 05:06:09;;;;;;;5.67;4.97;;;;;;;;;;5071663;28;20666;-49
2022/03/12 05:08:36;;;;;;;7.43;5.20;;;;;;;;;;5071828;28;20469;-49
2022/03/12 05:11:02;;;;;;;7.47;4.90;;;;;;;;;;5071583;28;20480;-49
2022/03/12 05:13:28;;;;;;;6.53;4.80;;;;;;;;;;5071526;28;20928;-49
2022/03/12 05:15:58;;;;;;;7.20;5.03;;;;;;;;;;5071674;28;20442;-49
2022/03/12 05:18:25;;;;;;;7.20;5.10;;;;;;;;;;5071599;28;20226;-49
2022/03/12 05:20:52;;;;;;;5.53;4.60;;;;;;;;;;5071689;28;20445;-49
2022/03/12 05:23:19;;;;;;;14.47;4.93;;;;;;;;;;5071297;28;20485;-49
2022/03/12 05:25:46;;;;;;;6.40;4.60;;;;;;;;;;5071649;28;20932;-49
2022/03/12 05:28:17;;;;;;;6.23;4.53;;;;;;;;;;5071544;28;20517;-49
2022/03/12 05:30:46;;;;;;;5.63;5.00;;;;;;;;;;5071685;28;20465;-49
2022/03/12 05:33:14;;;;;;;8.57;4.40;;;;;;;;;;5071478;28;20444;-49
2022/03/12 05:35:41;;;;;;;5.37;4.43;;;;;;;;;;5071561;28;20507;-49
2022/03/12 05:38:08;;;;;;;5.97;4.37;;;;;;;;;;5071388;28;20529;-49
2022/03/12 05:40:38;;;;;;;6.10;4.50;;;;;;;;;;5071152;28;20924;-49
2022/03/12 05:43:14;;;;;;;6.23;4.33;;;;;;;;;;5071245;28;20432;-51
2022/03/12 05:45:41;;;;;;;6.57;4.50;;;;;;;;;;5071452;28;20444;-49
2022/03/12 05:48:08;;;;;;;7.30;4.13;;;;;;;;;;5071274;28;20438;-48
2022/03/12 05:50:36;;;;;;;5.60;4.50;;;;;;;;;;5071336;28;20473;-49
2022/03/12 05:53:05;;;;;;;4.37;3.97;;;;;;;;;;5074988;28;20438;-48
2022/03/12 05:55:38;;;;;;;6.50;4.10;;;;;;;;;;5074930;28;20488;-49
2022/03/12 05:58:04;;;;;;;4.90;4.00;;;;;;;;;;5074910;28;20932;-49
2022/03/12 06:00:32;;;;;;;5.77;3.97;;;;;;;;;;5075105;28;20442;-49
2022/03/12 06:02:59;;;;;;;4.30;3.60;;;;;;;;;;5075057;28;20508;-50
2022/03/12 06:05:26;;;;;;;5.40;3.67;;;;;;;;;;5074795;28;20437;-48
2022/03/12 06:07:53;;;;;;;5.30;4.37;;;;;;;;;;5074771;28;20434;-48
2022/03/12 06:10:21;;;;;;;6.17;4.33;;;;;;;;;;5074562;28;20473;-49
2022/03/12 06:12:50;;;;;;;8.17;4.20;;;;;;;;;;5074732;28;20947;-48
2022/03/12 06:15:17;;;;;;;4.90;3.67;;;;;;;;;;5074773;28;20438;-49
2022/03/12 06:17:45;;;;;;;5.40;4.03;;;;;;;;;;5074445;28;20777;-49
2022/03/12 06:20:12;;;;;;;4.03;3.47;;;;;;;;;;5074565;28;20946;-48
2022/03/12 06:22:39;;;;;;;4.77;3.70;;;;;;;;;;5074632;28;20446;-49
2022/03/12 06:25:07;;;;;;;4.77;3.93;;;;;;;;;;5074434;28;20456;-49
2022/03/12 06:27:34;;;;;;;6.60;4.00;;;;;;;;;;5074482;28;20430;-49
2022/03/12 06:30:01;;;;;;;4.83;4.00;;;;;;;;;;5074313;28;20530;-48
2022/03/12 06:32:30;;;;;;;8.30;4.17;;;;;;;;;;5074418;28;20438;-47
2022/03/12 06:34:56;;;;;;;6.77;4.40;;;;;;;;;;5074221;28;20935;-49
2022/03/12 06:37:22;;;;;;;6.83;4.30;;;;;;;;;;5074000;28;20500;-48
2022/03/12 06:39:48;;;;;;;6.10;4.00;;;;;;;;;;5074239;28;20430;-48
2022/03/12 06:42:16;;;;;;;4.83;4.03;;;;;;;;;;5074087;28;20430;-48
2022/03/12 06:44:43;;;;;;;7.13;4.43;;;;;;;;;;5072797;28;20786;-49
2022/03/12 06:47:10;;;;;;;6.47;4.17;;;;;;;;;;5074022;28;20425;-49
2022/03/12 06:49:37;;;;;;;6.83;4.00;;;;;;;;;;5074049;28;20442;-49
2022/03/12 06:52:05;;;;;;;5.10;3.97;;;;;;;;;;5073992;28;20477;-50
2022/03/12 06:54:31;;;;;;;14.63;4.27;;;;;;;;;;5073955;28;20460;-49
2022/03/12 06:56:57;;;;;;;5.77;4.40;;;;;;;;;;5073955;28;20426;-49
2022/03/12 06:59:24;;;;;;;5.37;4.17;;;;;;;;;;5073297;28;20821;-48
2022/03/12 07:01:50;;;;;;;6.40;4.20;;;;;;;;;;5073682;28;20223;-48
2022/03/12 07:04:16;;;;;;;5.30;3.87;;;;;;;;;;5072860;28;20484;-48
2022/03/12 07:06:43;;;;;;;5.50;3.77;;;;;;;;;;5073756;28;20438;-49
2022/03/12 07:09:09;;;;;;;5.53;4.17;;;;;;;;;;5073423;28;20449;-48
2022/03/12 07:11:35;;;;;;;5.40;3.93;;;;;;;;;;5073503;28;20487;-48
2022/03/12 07:14:01;;;;;;;5.90;4.40;;;;;;;;;;5073517;28;20430;-48
2022/03/12 07:16:28;;;;;;;7.63;4.07;;;;;;;;;;5072119;28;20955;-47
2022/03/12 07:18:56;;;;;;;5.50;4.13;;;;;;;;;;5073503;28;20200;-48
2022/03/12 07:21:22;;;;;;;4.37;3.83;;;;;;;;;;5073399;28;20442;-48
2022/03/12 07:23:48;;;;;;;5.60;3.83;;;;;;;;;;5073125;28;20473;-49
2022/03/12 07:26:14;;;;;;;6.83;4.20;;;;;;;;;;5073120;28;20211;-48
2022/03/12 07:28:40;;;;;;;5.53;3.90;;;;;;;;;;5073286;28;20202;-49
2022/03/12 07:31:07;;;;;;;5.17;4.00;;;;;;;;;;5072878;28;20632;-49
2022/03/12 07:33:35;;;;;;;4.60;4.07;;;;;;;;;;5073060;28;20433;-50
2022/03/12 07:36:01;;;;;;;7.67;3.90;;;;;;;;;;5073124;28;20458;-50
2022/03/12 07:38:27;;;;;;;4.30;3.63;;;;;;;;;;5072951;28;20487;-50
2022/03/12 07:40:53;;;;;;;5.63;3.77;;;;;;;;;;5072733;28;20219;-48
2022/03/12 07:43:20;;;;;;;4.57;4.07;;;;;;;;;;5072621;28;20481;-50
2022/03/12 07:45:46;;;;;;;5.43;3.90;;;;;;;;;;5072928;28;20230;-49
2022/03/12 07:48:13;;;;;;;8.33;4.40;;;;;;;;;;5071590;28;20974;-49
2022/03/12 07:50:40;;;;;;;5.40;4.30;;;;;;;;;;5072813;28;20477;-48
2022/03/12 07:53:06;;;;;;;6.33;4.40;;;;;;;;;;5072616;28;20438;-49
2022/03/12 07:55:32;;;;;;;5.23;4.00;;;;;;;;;;5072595;28;21014;-49
2022/03/12 07:57:58;;;;;;;4.53;3.40;;;;;;;;;;5072748;28;20237;-49
2022/03/12 08:00:28;;;;;;;4.63;3.60;;;;;;;;;;5072452;28;20253;-49
2022/03/12 08:02:55;;;;;;;7.40;4.23;;;;;;;;;;5072505;28;20444;-49
2022/03/12 08:05:24;;;;;;;4.00;3.60;;;;;;;;;;5072386;28;20441;-50
2022/03/12 08:07:54;;;;;;;4.07;3.17;;;;;;;;;;5072239;28;20491;-49
2022/03/12 08:10:20;;;;;;;5.30;3.50;;;;;;;;;;5072071;28;20473;-50
2022/03/12 08:12:46;;;;;;;4.40;3.30;;;;;;;;;;5072563;28;20540;-51
2022/03/12 08:15:12;;;;;;;4.17;3.70;;;;;;;;;;5072146;28;20812;-50
2022/03/12 08:17:38;;;;;;;6.93;3.40;;;;;;;;;;5072372;28;20533;-50
2022/03/12 08:20:07;;;;;;;4.50;3.60;;;;;;;;;;5072235;28;21006;-48
2022/03/12 08:22:34;;;;;;;5.50;3.80;;;;;;;;;;5072153;28;20213;-50
2022/03/12 08:25:01;;;;;;;5.00;4.10;;;;;;;;;;5071947;28;20556;-49
2022/03/12 08:27:27;;;;;;;3.63;3.30;;;;;;;;;;5072177;28;20438;-50
2022/03/12 08:29:53;;;;;;;8.37;3.60;;;;;;;;;;5072108;28;20448;-49
2022/03/12 08:32:19;;;;;;;5.07;4.23;;;;;;;;;;5072011;28;20674;-50
2022/03/12 08:34:45;;;;;;;4.10;3.70;;;;;;;;;;5072180;28;20290;-50
2022/03/12 08:37:12;;;;;;;4.57;3.37;;;;;;;;;;5072040;28;20225;-50
2022/03/12 08:39:38;;;;;;;4.67;3.77;;;;;;;;;;5071929;28;20813;-49
2022/03/12 08:42:06;;;;;;;4.70;3.70;;;;;;;;;;5071750;28;20430;-50
2022/03/12 08:44:32;;;;;;;4.13;3.63;;;;;;;;;;5071826;28;20480;-50
2022/03/12 08:46:59;;;;;;;3.73;3.30;;;;;;;;;;5071908;28;20842;-49
2022/03/12 08:49:25;;;;;;;3.90;3.60;;;;;;;;;;5071748;28;20223;-50
2022/03/12 08:51:51;;;;;;;3.60;3.30;;;;;;;;;;5071721;28;20803;-50
2022/03/12 08:54:17;;;;;;;6.33;3.80;;;;;;;;;;5071702;28;20433;-50
2022/03/12 08:56:43;;;;;;;5.70;3.70;;;;;;;;;;5071506;28;20200;-50
2022/03/12 08:59:12;;;;;;;5.30;3.70;;;;;;;;;;5071325;28;20697;-48
2022/03/12 09:01:38;;;;;;;4.47;3.60;;;;;;;;;;5071813;28;20204;-49
2022/03/12 09:04:04;;;;;;;4.40;3.63;;;;;;;;;;5071687;28;20243;-50
2022/03/12 09:06:32;;;;;;;4.60;3.63;;;;;;;;;;5071824;28;20238;-50
2022/03/12 09:08:58;;;;;;;4.37;3.60;;;;;;;;;;5071884;28;20298;-50
2022/03/12 09:11:25;;;;;;;5.00;4.07;;;;;;;;;;5071468;28;20227;-49
2022/03/12 09:13:51;;;;;;;3.77;3.43;;;;;;;;;;5071635;28;20199;-48
2022/03/12 09:16:18;;;;;;;6.00;3.53;;;;;;;;;;5071830;28;20254;-50
2022/03/12 09:18:44;;;;;;;4.30;3.90;;;;;;;;;;5071644;28;20195;-49
2022/03/12 09:21:11;;;;;;;4.93;3.97;;;;;;;;;;5071490;28;20283;-48
2022/03/12 09:23:37;;;;;;;4.20;3.80;;;;;;;;;;5071090;28;20880;-50
2022/03/12 09:26:04;;;;;;;5.53;3.97;;;;;;;;;;5071969;28;20749;-49
2022/03/12 09:28:30;;;;;;;4.33;3.83;;;;;;;;;;5075349;28;20199;-50
2022/03/12 09:30:56;;;;;;;5.17;3.80;;;;;;;;;;5075268;28;20306;-51
2022/03/12 09:33:24;;;;;;;4.77;4.07;;;;;;;;;;5075337;28;20294;-49
2022/03/12 09:35:50;;;;;;;4.47;3.83;;;;;;;;;;5075344;28;20200;-49
2022/03/12 09:38:17;;;;;;;6.83;3.60;;;;;;;;;;5075263;28;20206;-48
2022/03/12 09:40:43;;;;;;;5.30;3.80;;;;;;;;;;5075471;28;20235;-50
2022/03/12 09:43:10;;;;;;;5.20;3.87;;;;;;;;;;5075133;28;20199;-52
2022/03/12 09:45:36;;;;;;;5.23;4.20;;;;;;;;;;5075050;28;20199;-50
2022/03/12 09:48:02;;;;;;;7.00;4.37;;;;;;;;;;5074947;28;20231;-50
2022/03/12 09:50:30;;;;;;;5.73;4.40;;;;;;;;;;5074808;28;20705;-50
2022/03/12 09:52:56;;;;;;;5.33;4.10;;;;;;;;;;5075114;28;20572;-50
2022/03/12 09:55:22;;;;;;;4.10;3.70;;;;;;;;;;5074812;28;20195;-51
2022/03/12 09:57:49;;;;;;;6.43;3.53;;;;;;;;;;5075079;28;20735;-50
2022/03/12 10:00:15;;;;;;;4.67;3.87;;;;;;;;;;5074825;28;20662;-51
2022/03/12 10:02:41;;;;;;;5.60;4.13;;;;;;;;;;5075294;28;20204;-50
2022/03/12 10:05:11;;;;;;;5.10;4.23;;;;;;;;;;5075037;28;20245;-50
2022/03/12 10:07:38;;;;;;;6.70;4.33;;;;;;;;;;5074669;28;20969;-50
2022/03/12 10:10:04;;;;;;;6.90;4.30;;;;;;;;;;5074749;28;20206;-52
2022/03/12 10:12:31;;;;;;;5.90;4.40;;;;;;;;;;5074877;28;20222;-49
2022/03/12 10:14:57;;;;;;;5.67;4.17;;;;;;;;;;5074930;28;20649;-50
2022/03/12 10:17:23;;;;;;;6.40;4.57;;;;;;;;;;5074652;28;20235;-50
2022/03/12 10:19:49;;;;;;;5.33;4.03;;;;;;;;;;5074695;28;20206;-50
2022/03/12 10:22:16;;;;;;;9.40;4.60;;;;;;;;;;5074756;28;20195;-50
2022/03/12 10:24:43;;;;;;;6.13;4.23;;;;;;;;;;5074383;28;20238;-48
2022/03/12 10:27:10;;;;;;;7.90;4.33;;;;;;;;;;5074472;28;20203;-50
2022/03/12 10:29:36;;;;;;;6.27;4.60;;;;;;;;;;5074361;28;20194;-51
2022/03/12 10:32:21;;;;;;;5.67;4.33;;;;;;;;;;5074453;28;20322;-50
2022/03/12 10:34:52;;;;;;;5.13;3.97;;;;;;;;;;5074299;28;20199;-50
2022/03/12 10:37:19;;;;;;;5.53;4.50;;;;;;;;;;5069764;28;20522;-51
2022/03/12 10:39:46;;;;;;;4.37;3.93;;;;;;;;;;5073179;28;20336;-50
2022/03/12 10:42:13;;;;;;;8.23;4.40;;;;;;;;;;5074012;28;20231;-50
2022/03/12 10:44:39;;;;;;;9.07;4.23;;;;;;;;;;5073934;28;20673;-50
2022/03/12 10:47:13;;;;;;;8.27;4.43;;;;;;;;;;5073725;28;20205;-50
2022/03/12 10:49:39;;;;;;;6.07;4.33;;;;;;;;;;5073795;28;20188;-51
2022/03/12 10:52:05;;;;;;;7.80;4.47;;;;;;;;;;5073687;28;20222;-50
2022/03/12 10:54:31;;;;;;;8.50;4.43;;;;;;;;;;5073530;28;20204;-51
2022/03/12 10:57:00;;;;;;;6.77;4.40;;;;;;;;;;5074135;28;20196;-52
2022/03/12 10:59:26;;;;;;;6.87;4.60;;;;;;;;;;5073511;28;20671;-50
2022/03/12 11:01:53;;;;;;;5.27;3.90;;;;;;;;;;5073775;28;20271;-51
2022/03/12 11:04:21;;;;;;;5.43;4.63;;;;;;;;;;5073429;28;20202;-51
2022/03/12 11:06:47;;;;;;;5.67;4.40;;;;;;;;;;5073528;28;20216;-51
2022/03/12 11:09:16;;;;;;;4.67;4.23;;;;;;;;;;5073566;28;20198;-50
2022/03/12 11:11:43;;;;;;;6.17;4.33;;;;;;;;;;5073149;28;20236;-51
2022/03/12 11:14:15;;;;;;;4.73;4.23;;;;;;;;;;5073206;28;20198;-50
2022/03/12 11:16:41;;;;;;;6.67;4.80;;;;;;;;;;5073236;28;20633;-51
2022/03/12 11:19:07;;;;;;;8.47;4.43;;;;;;;;;;5073076;28;20274;-50
2022/03/12 11:21:37;;;;;;;6.97;4.57;;;;;;;;;;5073118;28;20226;-50
2022/03/12 11:24:05;;;;;;;8.37;4.40;;;;;;;;;;5073050;28;20292;-50
2022/03/12 11:26:31;;;;;;;5.27;4.77;;;;;;;;;;5073341;28;20191;-50
2022/03/12 11:28:58;;;;;;;7.77;4.73;;;;;;;;;;5071756;28;20271;-50
2022/03/12 11:31:42;;;;;;;6.33;4.47;;;;;;;;;;5073214;28;20265;-52
2022/03/12 11:34:23;;;;;;;6.53;4.50;;;;;;;;;;5073223;28;20233;-50
2022/03/12 11:37:05;;;;;;;6.70;4.70;;;;;;;;;;5073426;28;20209;-52
2022/03/12 11:39:32;;;;;;;7.23;5.03;;;;;;;;;;5071102;28;20251;-50
2022/03/12 11:42:02;;;;;;;6.40;4.40;;;;;;;;;;5072921;28;20642;-51
2022/03/12 11:44:29;;;;;;;4.97;4.47;;;;;;;;;;5073037;28;20203;-51
2022/03/12 11:46:57;;;;;;;5.30;4.63;;;;;;;;;;5072968;28;20200;-51
2022/03/12 11:49:24;;;;;;;5.17;4.23;;;;;;;;;;5072400;28;20338;-52
2022/03/12 11:51:52;;;;;;;6.40;4.37;;;;;;;;;;5072672;28;20224;-50
2022/03/12 11:54:18;;;;;;;5.23;4.73;;;;;;;;;;5072686;28;20207;-51
2022/03/12 11:56:44;;;;;;;6.57;4.70;;;;;;;;;;5072927;28;20534;-51
2022/03/12 11:59:10;;;;;;;7.03;4.80;;;;;;;;;;5072886;28;20223;-51
2022/03/12 12:01:37;;;;;;;5.60;4.83;;;;;;;;;;5072538;28;20211;-51
2022/03/12 12:04:05;;;;;;;7.63;5.17;;;;;;;;;;5072608;28;20199;-52
2022/03/12 12:06:33;;;;;;;5.40;4.47;;;;;;;;;;5072442;28;20214;-53
2022/03/12 12:09:01;;;;;;;5.77;4.77;;;;;;;;;;5072785;28;20207;-51
2022/03/12 12:11:30;;;;;;;5.67;4.90;;;;;;;;;;5072294;28;20712;-50
2022/03/12 12:13:56;;;;;;;5.43;4.80;;;;;;;;;;5072559;28;20599;-50
2022/03/12 12:16:22;;;;;;;5.30;4.80;;;;;;;;;;5072168;28;20206;-50
2022/03/12 12:18:48;;;;;;;5.77;4.60;;;;;;;;;;5072259;28;20203;-51
2022/03/12 12:21:17;;;;;;;6.40;4.70;;;;;;;;;;5072360;28;20198;-51
2022/03/12 12:23:43;;;;;;;5.80;4.77;;;;;;;;;;5071801;28;20259;-51
2022/03/12 12:26:09;;;;;;;5.23;4.67;;;;;;;;;;5072045;28;20262;-52
2022/03/12 12:28:45;;;;;;;7.87;4.90;;;;;;;;;;5071884;28;20812;-51
2022/03/12 12:31:14;;;;;;;5.33;4.83;;;;;;;;;;5072074;28;20223;-51
2022/03/12 12:33:44;;;;;;;6.77;4.90;;;;;;;;;;5072093;28;20192;-52
2022/03/12 12:36:10;;;;;;;7.93;5.23;;;;;;;;;;5072188;28;20196;-51
2022/03/12 12:38:39;;;;;;;5.97;5.37;;;;;;;;;;5072064;28;20566;-51
2022/03/12 12:41:06;;;;;;;5.43;4.93;;;;;;;;;;5071940;28;20192;-51
2022/03/12 12:43:33;;;;;;;6.60;5.50;;;;;;;;;;5071934;28;20260;-52
2022/03/12 12:46:04;;;;;;;8.63;5.27;;;;;;;;;;5071807;28;20203;-51
2022/03/12 12:48:31;;;;;;;6.13;5.30;;;;;;;;;;5070072;28;20215;-52
2022/03/12 12:51:08;;;;;;;8.80;4.97;;;;;;;;;;5071686;28;20255;-51
2022/03/12 12:53:36;;;;;;;5.90;5.30;;;;;;;;;;5071627;28;20191;-51
2022/03/12 12:56:20;;;;;;;6.00;5.40;;;;;;;;;;5071734;28;20211;-51
2022/03/12 12:58:47;;;;;;;6.60;4.90;;;;;;;;;;5071687;28;20203;-51
2022/03/12 13:01:16;;;;;;;5.93;5.23;;;;;;;;;;5071000;28;20192;-51
2022/03/12 13:03:48;;;;;;;6.77;5.37;;;;;;;;;;5071596;28;20661;-51
2022/03/12 13:06:35;;;;;;;7.33;5.17;;;;;;;;;;5071708;28;20372;-51
2022/03/12 13:09:05;;;;;;;5.73;4.97;;;;;;;;;;5071539;28;20294;-51
2022/03/12 13:11:33;;;;;;;10.27;5.03;;;;;;;;;;5071528;28;20227;-51
2022/03/12 13:14:00;;;;;;;5.57;4.90;;;;;;;;;;5071669;28;20199;-51
2022/03/12 13:16:27;;;;;;;6.33;5.10;;;;;;;;;;5071456;28;20199;-51
2022/03/12 13:18:53;;;;;;;7.07;5.40;;;;;;;;;;5071471;28;20195;-51
2022/03/12 13:21:30;;;;;;;6.80;5.43;;;;;;;;;;5071092;28;20654;-52
2022/03/12 13:23:56;;;;;;;5.87;5.23;;;;;;;;;;5071413;28;20251;-51
2022/03/12 13:26:26;;;;;;;8.40;5.13;;;;;;;;;;5071681;28;20198;-51
2022/03/12 13:28:54;;;;;;;8.80;4.87;;;;;;;;;;5071746;28;20222;-51
2022/03/12 13:31:23;;;;;;;6.60;5.50;;;;;;;;;;5071191;28;20218;-52
2022/03/12 13:33:56;;;;;;;5.53;5.03;;;;;;;;;;5071596;28;20642;-51
2022/03/12 13:36:23;;;;;;;7.37;5.13;;;;;;;;;;5071568;28;20592;-51
2022/03/12 13:38:50;;;;;;;7.47;5.67;;;;;;;;;;5071690;28;20229;-51
2022/03/12 13:41:18;;;;;;;6.53;5.63;;;;;;;;;;5071609;28;20584;-51
2022/03/12 13:43:44;;;;;;;6.23;5.23;;;;;;;;;;5071549;28;20262;-52
2022/03/12 13:46:12;;;;;;;5.93;5.33;;;;;;;;;;5071572;28;20290;-51
2022/03/12 13:48:38;;;;;;;6.90;5.10;;;;;;;;;;5071508;28;20204;-50
2022/03/12 13:51:04;;;;;;;6.27;5.40;;;;;;;;;;5071330;28;20709;-51
2022/03/12 13:53:31;;;;;;;6.07;5.00;;;;;;;;;;5071331;28;20202;-50
2022/03/12 13:56:05;;;;;;;6.17;5.23;;;;;;;;;;5071443;28;20220;-50
2022/03/12 13:58:31;;;;;;;6.23;5.20;;;;;;;;;;5071511;28;20222;-52
2022/03/12 14:01:00;;;;;;;5.90;5.30;;;;;;;;;;5071385;28;20188;-51
2022/03/12 14:03:29;;;;;;;8.80;5.50;;;;;;;;;;5071360;28;20203;-51
2022/03/12 14:05:56;;;;;;;7.10;5.53;;;;;;;;;;5069713;28;20204;-52
2022/03/12 14:08:24;;;;;;;5.37;4.87;;;;;;;;;;5071209;28;20204;-51
2022/03/12 14:10:52;;;;;;;8.57;5.70;;;;;;;;;;5071052;28;20224;-52
2022/03/12 14:13:20;;;;;;;6.43;4.97;;;;;;;;;;5073683;28;20204;-51
2022/03/12 14:15:47;;;;;;;7.73;5.47;;;;;;;;;;5074835;28;20733;-51
2022/03/12 14:18:19;;;;;;;6.97;5.43;;;;;;;;;;5074814;28;20669;-51
2022/03/12 14:20:47;;;;;;;5.80;5.20;;;;;;;;;;5074857;28;20241;-51
2022/03/12 14:23:13;;;;;;;6.80;5.00;;;;;;;;;;5074601;28;20243;-51
2022/03/12 14:25:39;;;;;;;6.47;5.30;;;;;;;;;;5074561;28;20200;-52
2022/03/12 14:28:05;;;;;;;6.47;5.60;;;;;;;;;;5074424;28;20564;-52
2022/03/12 14:30:32;;;;;;;6.27;5.40;;;;;;;;;;5074145;28;20670;-53
2022/03/12 14:32:58;;;;;;;5.13;4.63;;;;;;;;;;5074367;28;20204;-51
2022/03/12 14:35:25;;;;;;;7.50;5.30;;;;;;;;;;5074012;28;20199;-52
2022/03/12 14:37:53;;;;;;;7.83;5.63;;;;;;;;;;5074577;28;20199;-51
2022/03/12 14:40:21;;;;;;;8.33;5.50;;;;;;;;;;5074084;28;20199;-52
2022/03/12 14:42:47;;;;;;;6.97;5.57;;;;;;;;;;5074402;28;20219;-52
2022/03/12 14:45:14;;;;;;;7.73;5.40;;;;;;;;;;5074403;28;20749;-52